Time;durP1;ratioP1;P1;durP2;ratioP2;P2;SDS_P1;SDS_P2;PMS_P1;PMS_P2;Temp;Humidity;BMP_temperature;BMP_pressure;BME280_temperature;BME280_humidity;BME280_pressure;Samples;Min_cycle;Max_cycle;Signal;HPM_P1;HPM_P2
2021/01/05 00:00:31;;;;;;;42.25;17.58;;;1.40;99.90;;;;;;4980555;28;20042;-78
2021/01/05 00:02:56;;;;;;;40.92;19.52;;;1.50;99.90;;;;;;4973441;28;20874;-77
2021/01/05 00:05:22;;;;;;;40.45;18.52;;;1.50;99.90;;;;;;4969791;28;20038;-77
2021/01/05 00:07:49;;;;;;;46.47;18.92;;;1.50;99.90;;;;;;4969938;28;20030;-78
2021/01/05 00:10:16;;;;;;;42.53;18.20;;;1.50;99.90;;;;;;4973252;28;20122;-77
2021/01/05 00:12:42;;;;;;;44.30;18.85;;;1.50;99.90;;;;;;4980075;28;20034;-77
2021/01/05 00:15:09;;;;;;;41.90;18.25;;;1.50;99.90;;;;;;4972014;28;20041;-77
2021/01/05 00:17:36;;;;;;;43.55;18.40;;;1.50;99.90;;;;;;4981471;28;20069;-77
2021/01/05 00:20:07;;;;;;;47.65;17.95;;;1.50;99.90;;;;;;4983300;28;20096;-78
2021/01/05 00:22:33;;;;;;;47.10;20.67;;;1.50;99.90;;;;;;4980176;28;20487;-78
2021/01/05 00:24:59;;;;;;;48.20;18.70;;;1.40;99.90;;;;;;4982104;28;20050;-78
2021/01/05 00:27:24;;;;;;;43.28;18.67;;;1.50;99.90;;;;;;4985085;28;20748;-78
2021/01/05 00:29:50;;;;;;;54.38;21.23;;;1.50;99.90;;;;;;4970824;28;20038;-78
2021/01/05 00:32:19;;;;;;;58.90;21.05;;;1.40;99.90;;;;;;4967431;28;20042;-78
2021/01/05 00:34:46;;;;;;;48.67;19.58;;;1.40;99.90;;;;;;4973893;28;20180;-78
2021/01/05 00:37:14;;;;;;;50.80;19.63;;;1.30;99.90;;;;;;4972468;28;20038;-77
2021/01/05 00:39:40;;;;;;;58.78;20.95;;;1.30;99.90;;;;;;4973559;28;20476;-77
2021/01/05 00:42:06;;;;;;;50.55;18.95;;;1.30;99.90;;;;;;4968138;28;20074;-78
2021/01/05 00:44:32;;;;;;;45.80;18.90;;;1.30;99.90;;;;;;4980908;28;20487;-77
2021/01/05 00:46:57;;;;;;;53.20;19.23;;;1.30;99.90;;;;;;4969711;28;20031;-77
2021/01/05 00:49:23;;;;;;;55.50;21.10;;;1.30;99.90;;;;;;4972231;28;20026;-77
2021/01/05 00:51:49;;;;;;;56.50;20.15;;;1.30;99.90;;;;;;4956568;28;20035;-76
2021/01/05 00:54:15;;;;;;;55.75;19.77;;;1.30;99.90;;;;;;4991432;28;20487;-77
2021/01/05 00:56:40;;;;;;;52.33;21.05;;;1.30;99.90;;;;;;4967431;28;20030;-76
2021/01/05 00:59:06;;;;;;;53.72;20.50;;;1.20;99.90;;;;;;4965344;28;20062;-77
2021/01/05 01:01:33;;;;;;;57.55;18.90;;;1.30;99.90;;;;;;4963255;28;20144;-77
2021/01/05 01:03:58;;;;;;;57.13;20.48;;;1.20;99.90;;;;;;4978753;28;20108;-76
2021/01/05 01:06:25;;;;;;;56.50;19.63;;;1.20;99.90;;;;;;4973037;28;20459;-77
2021/01/05 01:08:51;;;;;;;57.38;21.02;;;1.20;99.90;;;;;;4977565;28;20035;-77
2021/01/05 01:11:19;;;;;;;58.80;20.75;;;1.30;99.90;;;;;;4967871;28;20817;-77
2021/01/05 01:13:46;;;;;;;57.92;20.13;;;1.30;99.90;;;;;;4977584;28;20101;-77
2021/01/05 01:16:13;;;;;;;61.97;21.50;;;1.30;99.90;;;;;;4976918;28;20042;-77
2021/01/05 01:18:40;;;;;;;69.97;21.95;;;1.20;99.90;;;;;;4977890;28;20054;-78
2021/01/05 01:21:06;;;;;;;57.83;21.90;;;1.30;99.90;;;;;;4945923;28;20034;-78
2021/01/05 01:23:35;;;;;;;62.55;20.95;;;1.30;99.90;;;;;;4974907;28;20437;-80
2021/01/05 01:26:02;;;;;;;54.78;20.60;;;1.30;99.90;;;;;;4963643;28;20035;-78
2021/01/05 01:28:30;;;;;;;61.63;20.63;;;1.30;99.90;;;;;;4970978;28;20430;-78
2021/01/05 01:30:55;;;;;;;60.50;21.42;;;1.40;99.90;;;;;;4958138;28;20184;-78
2021/01/05 01:33:27;;;;;;;58.17;21.10;;;1.30;99.90;;;;;;4960411;28;20035;-78
2021/01/05 01:35:59;;;;;;;62.72;21.35;;;1.30;99.90;;;;;;4955248;28;20421;-78
2021/01/05 01:38:25;;;;;;;62.70;21.45;;;1.30;99.90;;;;;;4954943;28;20030;-78
2021/01/05 01:40:57;;;;;;;54.67;20.70;;;1.30;99.90;;;;;;4971328;28;20039;-78
2021/01/05 01:43:28;;;;;;;57.83;21.40;;;1.20;99.90;;;;;;4970616;28;20117;-78
2021/01/05 01:45:59;;;;;;;58.00;21.38;;;1.20;99.90;;;;;;4973845;28;20353;-78
2021/01/05 01:48:33;;;;;;;57.28;21.83;;;1.30;99.90;;;;;;4979159;28;20034;-78
2021/01/05 01:51:03;;;;;;;54.55;19.70;;;1.30;99.90;;;;;;4977012;28;20026;-78
2021/01/05 01:54:05;;;;;;;62.95;22.25;;;1.30;99.90;;;;;;4975729;28;20037;-80
2021/01/05 01:57:09;;;;;;;58.63;21.00;;;1.30;99.90;;;;;;4965432;28;20026;-78
2021/01/05 02:00:10;;;;;;;60.97;21.85;;;1.30;99.90;;;;;;4957387;28;20038;-78
2021/01/05 02:03:16;;;;;;;64.47;21.15;;;1.30;99.90;;;;;;4957830;28;20146;-78
2021/01/05 02:06:04;;;;;;;53.90;20.00;;;1.30;99.90;;;;;;4961609;28;20127;-77
2021/01/05 02:08:39;;;;;;;57.05;20.95;;;1.30;99.90;;;;;;4968591;28;20038;-78
2021/01/05 02:11:23;;;;;;;55.15;20.40;;;1.30;99.90;;;;;;4969310;28;20442;-77
2021/01/05 02:14:04;;;;;;;53.22;21.20;;;1.30;99.90;;;;;;4964413;28;20030;-77
2021/01/05 02:16:57;;;;;;;56.80;20.92;;;1.30;99.90;;;;;;4961737;28;20057;-78
2021/01/05 02:19:30;;;;;;;51.33;19.30;;;1.40;99.90;;;;;;4964918;28;20043;-77
2021/01/05 02:22:23;;;;;;;54.15;20.38;;;1.50;99.90;;;;;;4976048;28;20078;-77
2021/01/05 02:24:58;;;;;;;51.63;19.23;;;1.40;99.90;;;;;;4968405;28;20038;-78
2021/01/05 02:27:25;;;;;;;50.85;20.23;;;1.40;99.90;;;;;;4990373;28;20448;-77
2021/01/05 02:29:58;;;;;;;52.72;19.77;;;1.40;99.90;;;;;;4968380;28;20056;-78
2021/01/05 02:32:52;;;;;;;52.72;20.02;;;1.40;99.90;;;;;;4950571;28;20031;-77
2021/01/05 02:36:06;;;;;;;49.40;19.08;;;1.30;99.90;;;;;;4976216;28;20117;-77
2021/01/05 02:39:28;;;;;;;52.58;19.73;;;1.30;99.90;;;;;;4953183;28;20048;-78
2021/01/05 02:42:43;;;;;;;51.40;19.30;;;1.30;99.90;;;;;;4959353;28;20705;-77
2021/01/05 02:45:33;;;;;;;55.58;20.67;;;1.40;99.90;;;;;;4984315;28;20231;-81
2021/01/05 02:48:49;;;;;;;48.78;19.73;;;1.40;99.90;;;;;;4955369;28;20084;-78
2021/01/05 02:52:14;;;;;;;50.72;20.67;;;1.40;99.90;;;;;;4967645;28;20049;-78
2021/01/05 02:55:46;;;;;;;46.25;19.52;;;1.40;99.90;;;;;;4970675;28;20247;-78
2021/01/05 02:58:58;;;;;;;49.90;19.75;;;1.40;99.90;;;;;;4958578;28;20050;-77
2021/01/05 03:01:58;;;;;;;47.88;18.63;;;1.40;99.90;;;;;;4960143;28;20081;-77
2021/01/05 03:04:56;;;;;;;54.60;20.05;;;1.40;99.90;;;;;;4958056;28;20038;-77
2021/01/05 03:07:40;;;;;;;46.75;18.90;;;1.40;99.90;;;;;;4965608;28;20049;-77
2021/01/05 03:11:05;;;;;;;59.95;21.13;;;1.40;99.90;;;;;;4975395;28;20804;-76
2021/01/05 03:14:01;;;;;;;46.35;19.02;;;1.50;99.90;;;;;;4957143;28;20053;-77
2021/01/05 03:16:55;;;;;;;47.53;20.70;;;1.40;99.90;;;;;;4972796;28;20195;-78
2021/01/05 03:19:50;;;;;;;49.15;20.17;;;1.40;99.90;;;;;;4969324;28;20049;-77
2021/01/05 03:22:39;;;;;;;44.97;19.40;;;1.50;99.90;;;;;;4969973;28;20669;-77
2021/01/05 03:25:26;;;;;;;49.15;20.27;;;1.50;99.90;;;;;;4980226;28;20295;-78
2021/01/05 03:28:13;;;;;;;51.97;21.73;;;1.50;99.90;;;;;;4959024;28;20042;-77
2021/01/05 03:31:10;;;;;;;53.20;21.58;;;1.50;99.90;;;;;;4975654;28;20092;-77
2021/01/05 03:34:00;;;;;;;48.55;21.45;;;1.50;99.90;;;;;;4938760;28;20494;-77
2021/01/05 03:36:45;;;;;;;45.90;19.65;;;1.50;99.90;;;;;;4965025;28;20042;-77
2021/01/05 03:39:29;;;;;;;50.63;22.58;;;1.50;99.90;;;;;;4960504;28;20054;-77
2021/01/05 03:42:13;;;;;;;52.80;21.88;;;1.50;99.90;;;;;;4975404;28;20049;-77
2021/01/05 03:44:57;;;;;;;51.05;20.00;;;1.40;99.90;;;;;;4958707;28;20101;-77
2021/01/05 03:47:42;;;;;;;47.47;20.40;;;1.40;99.90;;;;;;4950539;28;20046;-77
2021/01/05 03:50:26;;;;;;;46.83;19.95;;;1.40;99.90;;;;;;4977333;28;20124;-77
2021/01/05 03:53:10;;;;;;;50.53;19.77;;;1.40;99.90;;;;;;4977719;28;20450;-78
2021/01/05 03:55:55;;;;;;;45.55;19.70;;;1.40;99.90;;;;;;4970537;28;20097;-78
2021/01/05 03:58:39;;;;;;;54.78;21.55;;;1.40;99.90;;;;;;4954570;28;20061;-77
2021/01/05 04:01:23;;;;;;;49.92;20.38;;;1.50;99.90;;;;;;4979083;28;20073;-77
2021/01/05 04:03:49;;;;;;;47.08;20.08;;;1.50;99.90;;;;;;4969763;28;20769;-77
2021/01/05 04:06:15;;;;;;;48.35;19.83;;;1.60;99.90;;;;;;4958154;28;20791;-77
2021/01/05 04:08:40;;;;;;;51.33;20.92;;;1.50;99.90;;;;;;4961287;28;20677;-77
2021/01/05 04:11:06;;;;;;;51.05;20.73;;;1.50;99.90;;;;;;4960809;28;20053;-77
2021/01/05 04:13:32;;;;;;;51.47;21.13;;;1.50;99.90;;;;;;4952239;28;20027;-77
2021/01/05 04:15:58;;;;;;;42.60;18.27;;;1.40;99.90;;;;;;4957865;28;20713;-77
2021/01/05 04:18:24;;;;;;;51.50;20.42;;;1.50;99.90;;;;;;4955035;28;20046;-77
2021/01/05 04:20:49;;;;;;;46.95;20.13;;;1.50;99.90;;;;;;4947129;28;20797;-77
2021/01/05 04:23:15;;;;;;;43.85;19.02;;;1.40;99.90;;;;;;4942384;28;20295;-77
2021/01/05 04:25:41;;;;;;;44.00;18.95;;;1.50;99.90;;;;;;4963070;28;20045;-78
2021/01/05 04:28:07;;;;;;;43.33;18.65;;;1.60;99.90;;;;;;4971651;28;20119;-77
2021/01/05 04:30:35;;;;;;;43.03;18.17;;;1.50;99.90;;;;;;4964250;28;20153;-78
2021/01/05 04:33:07;;;;;;;43.53;19.27;;;1.60;99.90;;;;;;4976497;28;20042;-78
2021/01/05 04:35:32;;;;;;;42.88;18.23;;;1.50;99.90;;;;;;4965048;28;20035;-78
2021/01/05 04:37:58;;;;;;;39.63;17.73;;;1.50;99.90;;;;;;4959106;28;20042;-78
2021/01/05 04:40:35;;;;;;;40.92;17.60;;;1.50;99.90;;;;;;4963173;28;20828;-79
2021/01/05 04:43:31;;;;;;;40.45;18.27;;;1.50;99.90;;;;;;4961545;28;20053;-78
2021/01/05 04:46:15;;;;;;;43.75;17.38;;;1.50;99.90;;;;;;4972601;28;20035;-78
2021/01/05 04:49:00;;;;;;;44.58;18.27;;;1.50;99.90;;;;;;4946718;28;20050;-77
2021/01/05 04:51:42;;;;;;;25.23;11.50;;;1.50;99.90;;;;;;4968217;28;20038;-77
2021/01/05 04:54:27;;;;;;;44.55;17.52;;;1.40;99.90;;;;;;4969110;28;20455;-78
2021/01/05 04:57:18;;;;;;;41.13;17.42;;;1.40;99.90;;;;;;4966677;28;20114;-78
2021/01/05 05:00:04;;;;;;;39.60;17.67;;;1.50;99.90;;;;;;4972228;28;20114;-78
2021/01/05 05:02:30;;;;;;;35.20;16.40;;;1.40;99.90;;;;;;4972332;28;20039;-78
2021/01/05 05:05:23;;;;;;;44.15;16.48;;;1.40;99.90;;;;;;4971383;28;20545;-78
2021/01/05 05:08:10;;;;;;;40.33;16.98;;;1.50;99.90;;;;;;4969703;28;20121;-78
2021/01/05 05:10:50;;;;;;;37.70;16.48;;;1.50;99.90;;;;;;4945162;28;20042;-79
2021/01/05 05:13:35;;;;;;;37.42;16.98;;;1.50;99.90;;;;;;4961014;28;20101;-77
2021/01/05 05:16:39;;;;;;;37.00;16.70;;;1.40;99.90;;;;;;4946120;28;20508;-77
2021/01/05 05:19:28;;;;;;;36.80;15.88;;;1.30;99.90;;;;;;4960081;28;20053;-77
2021/01/05 05:22:17;;;;;;;37.13;17.08;;;1.40;99.90;;;;;;4947093;28;20110;-77
2021/01/05 05:24:49;;;;;;;35.63;16.05;;;1.50;99.90;;;;;;4960563;28;20035;-78
2021/01/05 05:27:29;;;;;;;39.95;16.98;;;1.40;99.90;;;;;;4963415;28;20034;-77
2021/01/05 05:30:29;;;;;;;38.90;16.67;;;1.40;99.90;;;;;;4981668;28;20034;-78
2021/01/05 05:32:58;;;;;;;38.40;17.08;;;1.40;99.90;;;;;;4963379;28;20039;-77
2021/01/05 05:35:58;;;;;;;38.42;16.67;;;1.50;99.90;;;;;;4955476;28;20042;-78
2021/01/05 05:38:48;;;;;;;37.90;16.75;;;1.50;99.90;;;;;;4982955;28;20034;-77
2021/01/05 05:41:28;;;;;;;36.08;17.05;;;1.50;99.90;;;;;;4976491;28;20034;-77
2021/01/05 05:44:12;;;;;;;37.95;16.52;;;1.50;99.90;;;;;;4962244;28;20038;-78
2021/01/05 05:46:44;;;;;;;38.17;17.02;;;1.50;99.90;;;;;;4971371;28;20093;-77
2021/01/05 05:50:00;;;;;;;36.65;16.45;;;1.60;99.90;;;;;;4968352;28;20030;-76
2021/01/05 05:52:59;;;;;;;36.13;16.40;;;1.50;99.90;;;;;;4950615;28;20638;-76
2021/01/05 05:55:44;;;;;;;33.08;15.50;;;1.60;99.90;;;;;;4968087;28;20314;-77
2021/01/05 05:58:14;;;;;;;37.88;15.80;;;1.60;99.90;;;;;;4962952;28;20034;-77
2021/01/05 06:00:45;;;;;;;38.10;17.10;;;1.50;99.90;;;;;;4972805;28;20038;-77
2021/01/05 06:03:14;;;;;;;37.53;17.45;;;1.50;99.90;;;;;;4980300;28;20109;-76
2021/01/05 06:05:40;;;;;;;36.30;17.30;;;1.60;99.90;;;;;;4943907;28;20039;-78
2021/01/05 06:08:08;;;;;;;31.98;15.35;;;1.60;99.90;;;;;;4963148;28;20050;-77
2021/01/05 06:10:34;;;;;;;33.42;17.10;;;1.60;99.90;;;;;;4969235;28;20795;-78
2021/01/05 06:13:00;;;;;;;34.85;16.15;;;1.50;99.90;;;;;;4994391;28;20026;-77
2021/01/05 06:15:26;;;;;;;32.30;15.80;;;1.60;99.90;;;;;;4965325;28;20140;-77
2021/01/05 06:17:52;;;;;;;33.10;16.73;;;1.60;99.90;;;;;;4973862;28;20102;-74
2021/01/05 06:20:19;;;;;;;37.13;16.40;;;1.50;99.90;;;;;;4943189;28;20038;-77
2021/01/05 06:22:45;;;;;;;34.33;15.30;;;1.50;99.90;;;;;;4965233;28;20883;-78
2021/01/05 06:25:12;;;;;;;35.58;16.27;;;1.50;99.90;;;;;;4951353;28;20030;-78
2021/01/05 06:27:38;;;;;;;37.22;18.45;;;1.50;99.90;;;;;;4972148;28;20112;-78
2021/01/05 06:30:06;;;;;;;39.72;16.65;;;1.50;99.90;;;;;;4972323;28;20054;-78
2021/01/05 06:32:32;;;;;;;32.35;16.10;;;1.50;99.90;;;;;;4966295;28;20040;-79
2021/01/05 06:34:57;;;;;;;39.42;18.77;;;1.60;99.90;;;;;;4987534;28;20031;-79
2021/01/05 06:37:23;;;;;;;41.35;18.65;;;1.60;99.90;;;;;;4975269;28;20031;-77
2021/01/05 06:39:49;;;;;;;32.22;15.73;;;1.60;99.90;;;;;;4959896;28;20486;-78
2021/01/05 06:42:15;;;;;;;33.45;15.32;;;1.60;99.90;;;;;;4963255;28;20109;-78
2021/01/05 06:44:45;;;;;;;32.45;15.88;;;1.60;99.90;;;;;;4965857;28;20620;-78
2021/01/05 06:47:12;;;;;;;33.00;15.82;;;1.60;99.90;;;;;;4961602;28;20034;-78
2021/01/05 06:49:37;;;;;;;36.38;16.05;;;1.60;99.90;;;;;;4947553;28;20117;-76
2021/01/05 06:52:04;;;;;;;28.80;14.57;;;1.70;99.90;;;;;;4959074;28;20038;-76
2021/01/05 06:54:30;;;;;;;29.27;14.55;;;1.70;99.90;;;;;;4967202;28;20035;-77
2021/01/05 06:56:57;;;;;;;32.17;15.02;;;1.60;99.90;;;;;;4967130;28;20093;-77
2021/01/05 06:59:24;;;;;;;34.60;16.08;;;1.60;99.90;;;;;;4971317;28;20034;-75
2021/01/05 07:02:01;;;;;;;38.05;18.48;;;1.60;99.90;;;;;;4966376;28;20097;-76
2021/01/05 07:04:27;;;;;;;37.17;17.90;;;1.60;99.90;;;;;;4963146;28;20089;-76
2021/01/05 07:06:54;;;;;;;31.17;15.13;;;1.50;99.90;;;;;;4971666;28;20035;-76
2021/01/05 07:09:22;;;;;;;39.35;18.42;;;1.50;99.90;;;;;;4977660;28;20041;-77
2021/01/05 07:11:48;;;;;;;32.22;16.20;;;1.50;99.90;;;;;;4969043;28;20558;-78
2021/01/05 07:14:17;;;;;;;37.65;14.90;;;1.60;99.90;;;;;;4965447;28;20120;-77
2021/01/05 07:16:42;;;;;;;29.15;14.00;;;1.60;99.90;;;;;;4964572;28;20038;-77
2021/01/05 07:19:08;;;;;;;31.92;15.15;;;1.50;99.90;;;;;;4968671;28;20042;-78
2021/01/05 07:21:34;;;;;;;32.00;15.50;;;1.50;99.90;;;;;;4979161;28;20797;-77
2021/01/05 07:24:00;;;;;;;33.20;15.95;;;1.50;99.90;;;;;;4970228;28;20043;-78
2021/01/05 07:26:25;;;;;;;34.50;14.88;;;1.50;99.90;;;;;;4950977;28;20041;-77
2021/01/05 07:28:51;;;;;;;32.50;15.63;;;1.50;99.90;;;;;;4965950;28;20134;-76
2021/01/05 07:31:18;;;;;;;33.50;15.55;;;1.60;99.90;;;;;;4986294;28;20038;-78
2021/01/05 07:34:05;;;;;;;31.02;14.30;;;1.60;99.90;;;;;;4971290;28;20553;-78
2021/01/05 07:36:54;;;;;;;34.03;16.75;;;1.50;99.90;;;;;;4944528;28;20816;-79
2021/01/05 07:39:29;;;;;;;29.02;14.35;;;1.50;99.90;;;;;;4960204;28;20034;-77
2021/01/05 07:42:25;;;;;;;33.42;15.93;;;1.60;99.90;;;;;;4963116;28;20049;-77
2021/01/05 07:44:53;;;;;;;34.60;16.10;;;1.60;99.90;;;;;;4974422;28;20038;-77
2021/01/05 07:47:21;;;;;;;36.72;18.02;;;1.60;99.90;;;;;;4964357;28;20224;-78
2021/01/05 07:49:47;;;;;;;41.40;17.58;;;1.70;99.90;;;;;;4966496;28;20031;-78
2021/01/05 07:52:46;;;;;;;38.40;17.10;;;1.60;99.90;;;;;;4970297;28;20041;-77
2021/01/05 07:55:25;;;;;;;41.30;17.77;;;1.60;99.90;;;;;;4949569;28;20043;-77
2021/01/05 07:57:52;;;;;;;41.83;18.02;;;1.70;99.90;;;;;;4964244;28;20091;-77
2021/01/05 08:00:21;;;;;;;40.55;17.67;;;1.60;99.90;;;;;;4974233;28;20499;-78
2021/01/05 08:02:47;;;;;;;41.47;17.98;;;1.60;99.90;;;;;;4963971;28;20137;-78
2021/01/05 08:05:15;;;;;;;45.35;19.63;;;1.60;99.90;;;;;;4966889;28;20042;-77
2021/01/05 08:07:41;;;;;;;46.05;19.05;;;1.70;99.90;;;;;;4971076;28;20038;-77
2021/01/05 08:10:08;;;;;;;43.50;19.42;;;1.70;99.90;;;;;;4975802;28;20034;-77
2021/01/05 08:12:33;;;;;;;40.70;18.67;;;1.80;99.90;;;;;;4966126;28;20652;-79
2021/01/05 08:14:59;;;;;;;45.42;17.83;;;1.90;99.90;;;;;;4964786;28;20114;-77
2021/01/05 08:17:25;;;;;;;42.60;17.88;;;1.80;99.90;;;;;;4968009;28;20087;-77
2021/01/05 08:19:51;;;;;;;47.55;18.75;;;1.80;99.90;;;;;;4973704;28;20490;-77
2021/01/05 08:22:18;;;;;;;46.25;19.92;;;1.70;99.90;;;;;;4970830;28;20031;-77
2021/01/05 08:24:44;;;;;;;47.30;18.95;;;1.70;99.90;;;;;;4977600;28;20406;-77
2021/01/05 08:27:12;;;;;;;42.58;18.55;;;1.70;99.90;;;;;;4970597;28;20067;-77
2021/01/05 08:29:38;;;;;;;45.05;19.08;;;1.80;99.90;;;;;;4967228;28;20038;-77
2021/01/05 08:32:04;;;;;;;43.45;18.83;;;1.70;99.90;;;;;;4968593;28;20030;-77
2021/01/05 08:34:30;;;;;;;48.97;20.25;;;1.80;99.90;;;;;;4972277;28;20034;-78
2021/01/05 08:37:00;;;;;;;42.95;19.08;;;1.80;99.90;;;;;;4971365;28;20065;-77
2021/01/05 08:39:26;;;;;;;51.42;19.75;;;1.80;99.90;;;;;;4971029;28;20034;-77
2021/01/05 08:41:53;;;;;;;43.28;18.55;;;1.90;99.90;;;;;;4949802;28;20042;-78
2021/01/05 08:44:19;;;;;;;44.30;19.10;;;1.90;99.90;;;;;;4961466;28;20050;-76
2021/01/05 08:46:45;;;;;;;49.38;19.65;;;1.90;99.90;;;;;;4970732;28;20070;-77
2021/01/05 08:49:11;;;;;;;43.33;19.00;;;1.90;99.90;;;;;;4977527;28;20141;-78
2021/01/05 08:51:36;;;;;;;45.17;19.02;;;1.90;99.90;;;;;;4975118;28;20060;-77
2021/01/05 08:54:03;;;;;;;46.35;19.42;;;1.90;99.90;;;;;;4989921;28;20470;-76
2021/01/05 08:56:29;;;;;;;46.92;18.17;;;1.90;99.90;;;;;;4974427;28;20042;-75
2021/01/05 08:58:56;;;;;;;43.05;19.02;;;1.90;99.90;;;;;;4966626;28;20182;-74
2021/01/05 09:01:22;;;;;;;49.58;20.02;;;1.90;99.90;;;;;;4964633;28;20082;-76
2021/01/05 09:03:48;;;;;;;45.38;18.58;;;2.00;99.90;;;;;;4971386;28;20866;-79
2021/01/05 09:06:20;;;;;;;40.22;18.42;;;2.00;99.90;;;;;;4954126;28;20030;-79
2021/01/05 09:08:46;;;;;;;42.58;17.98;;;2.00;99.90;;;;;;4968251;28;20041;-80
2021/01/05 09:11:31;;;;;;;46.65;17.75;;;2.10;99.90;;;;;;4955754;28;20042;-82
2021/01/05 09:13:56;;;;;;;45.17;19.83;;;2.10;99.90;;;;;;4942309;28;20035;-82
2021/01/05 09:16:25;;;;;;;44.05;18.20;;;2.10;99.90;;;;;;4973388;28;20034;-82
2021/01/05 09:18:53;;;;;;;45.40;18.88;;;2.10;99.90;;;;;;4967855;28;20035;-82
2021/01/05 09:21:22;;;;;;;50.25;20.10;;;2.10;99.90;;;;;;4944574;28;20034;-82
2021/01/05 09:23:54;;;;;;;48.00;19.63;;;2.20;99.90;;;;;;4967396;28;20952;-82
2021/01/05 09:26:27;;;;;;;48.50;19.25;;;2.10;99.90;;;;;;4973396;28;20114;-81
2021/01/05 09:28:52;;;;;;;50.58;18.67;;;2.10;99.90;;;;;;4955144;28;20034;-81
2021/01/05 09:31:19;;;;;;;47.55;21.02;;;2.20;99.90;;;;;;4962613;28;20031;-81
2021/01/05 09:33:45;;;;;;;46.03;19.05;;;2.30;99.90;;;;;;4960639;28;20498;-81
2021/01/05 09:36:12;;;;;;;40.17;17.55;;;2.20;99.90;;;;;;4966508;28;20069;-77
2021/01/05 09:38:40;;;;;;;43.25;19.65;;;2.10;99.90;;;;;;4968542;28;20145;-81
2021/01/05 09:41:17;;;;;;;42.15;19.25;;;2.20;99.90;;;;;;4979296;28;20116;-81
2021/01/05 09:43:43;;;;;;;45.05;18.83;;;2.10;99.90;;;;;;4963947;28;20034;-81
2021/01/05 09:46:11;;;;;;;40.17;19.15;;;2.10;99.90;;;;;;4960983;28;20235;-85
2021/01/05 09:48:37;;;;;;;48.50;19.27;;;2.10;99.90;;;;;;4981782;28;20034;-80
2021/01/05 09:51:03;;;;;;;39.15;17.55;;;2.10;99.90;;;;;;4973869;28;20049;-81
2021/01/05 09:53:28;;;;;;;46.63;18.85;;;2.10;99.90;;;;;;4979199;28;20042;-81
2021/01/05 09:55:54;;;;;;;44.83;19.30;;;2.20;99.90;;;;;;4976504;28;20446;-82
2021/01/05 09:58:20;;;;;;;39.25;18.17;;;2.20;99.90;;;;;;4978674;28;20147;-77
2021/01/05 10:00:45;;;;;;;46.15;18.90;;;2.20;99.90;;;;;;4964809;28;20074;-82
2021/01/05 10:03:11;;;;;;;43.47;17.95;;;2.20;99.90;;;;;;4971491;28;20134;-82
2021/01/05 10:05:37;;;;;;;44.80;18.52;;;2.20;99.90;;;;;;4986388;28;20041;-82
2021/01/05 10:08:03;;;;;;;48.95;20.35;;;2.20;99.90;;;;;;4968965;28;20147;-82
2021/01/05 10:10:28;;;;;;;44.15;18.27;;;2.20;99.90;;;;;;4960676;28;20046;-81
2021/01/05 10:12:54;;;;;;;46.13;18.20;;;2.20;99.90;;;;;;4962950;28;20027;-82
2021/01/05 10:15:23;;;;;;;40.92;18.52;;;2.20;99.90;;;;;;4974264;28;20085;-82
2021/01/05 10:17:49;;;;;;;42.97;18.17;;;2.20;99.90;;;;;;4943440;28;20589;-82
2021/01/05 10:20:17;;;;;;;39.88;17.27;;;2.30;99.90;;;;;;4964426;28;20042;-81
2021/01/05 10:22:43;;;;;;;41.75;18.73;;;2.20;99.90;;;;;;4966443;28;20074;-81
2021/01/05 10:25:11;;;;;;;38.15;17.30;;;2.30;99.90;;;;;;4947199;28;20129;-81
2021/01/05 10:27:37;;;;;;;36.80;16.90;;;2.40;99.90;;;;;;4970921;28;20477;-78
2021/01/05 10:30:10;;;;;;;40.60;18.25;;;2.40;99.90;;;;;;4976953;28;20122;-81
2021/01/05 10:32:37;;;;;;;39.90;16.67;;;2.40;99.90;;;;;;4962715;28;20027;-81
2021/01/05 10:35:04;;;;;;;32.97;16.27;;;2.50;99.90;;;;;;4964393;28;20209;-82
2021/01/05 10:37:30;;;;;;;35.72;16.95;;;2.40;99.90;;;;;;4944467;28;20175;-81
2021/01/05 10:39:55;;;;;;;31.55;14.70;;;2.30;99.90;;;;;;4953317;28;20672;-81
2021/01/05 10:42:21;;;;;;;33.13;14.88;;;2.40;99.90;;;;;;4980994;28;20608;-82
2021/01/05 10:44:47;;;;;;;35.45;16.73;;;2.50;99.90;;;;;;4960324;28;20105;-82
2021/01/05 10:47:14;;;;;;;31.35;16.15;;;2.40;99.90;;;;;;4962743;28;20039;-80
2021/01/05 10:49:41;;;;;;;33.90;16.00;;;2.30;99.90;;;;;;4943869;28;20129;-81
2021/01/05 10:52:14;;;;;;;33.85;16.00;;;2.40;99.90;;;;;;4953893;28;20030;-79
2021/01/05 10:54:40;;;;;;;28.40;14.02;;;2.30;99.90;;;;;;4968491;28;20044;-82
2021/01/05 10:57:06;;;;;;;32.85;16.23;;;2.30;99.90;;;;;;4968593;28;20035;-82
2021/01/05 10:59:33;;;;;;;36.28;17.83;;;2.30;99.90;;;;;;4948529;28;20044;-84
2021/01/05 11:02:02;;;;;;;37.03;16.75;;;2.40;99.90;;;;;;4959861;28;20047;-80
2021/01/05 11:04:29;;;;;;;31.00;14.95;;;2.30;99.90;;;;;;4961251;28;20134;-80
2021/01/05 11:07:00;;;;;;;37.20;16.45;;;2.50;99.90;;;;;;4972561;28;20156;-80
2021/01/05 11:09:27;;;;;;;33.83;15.73;;;2.50;99.90;;;;;;4960990;28;20042;-80
2021/01/05 11:12:20;;;;;;;37.85;17.25;;;2.50;99.90;;;;;;4947017;28;20034;-71
2021/01/05 11:14:46;;;;;;;34.25;17.25;;;2.50;99.90;;;;;;4976966;28;20047;-77
2021/01/05 11:17:12;;;;;;;31.17;15.35;;;2.50;99.90;;;;;;4945027;28;20038;-77
2021/01/05 11:19:39;;;;;;;37.20;15.60;;;2.60;99.90;;;;;;4974412;28;20094;-77
2021/01/05 11:22:08;;;;;;;35.13;16.33;;;2.50;99.90;;;;;;4963026;28;20110;-76
2021/01/05 11:24:38;;;;;;;33.50;15.27;;;2.50;99.90;;;;;;4950235;28;20171;-77
2021/01/05 11:27:05;;;;;;;36.58;16.00;;;2.50;99.90;;;;;;4941586;28;20043;-78
2021/01/05 11:29:32;;;;;;;32.17;14.75;;;2.40;99.90;;;;;;4966527;28;20043;-79
2021/01/05 11:32:04;;;;;;;31.08;14.35;;;2.40;99.90;;;;;;4962711;28;20791;-78
2021/01/05 11:34:30;;;;;;;36.60;14.68;;;2.40;99.90;;;;;;4982123;28;20502;-77
2021/01/05 11:37:01;;;;;;;36.33;15.50;;;2.40;99.90;;;;;;4970387;28;20046;-78
2021/01/05 11:39:26;;;;;;;34.53;16.13;;;2.50;99.90;;;;;;4963373;28;20085;-77
2021/01/05 11:41:56;;;;;;;34.80;14.77;;;2.50;99.90;;;;;;4966987;28;20475;-77
2021/01/05 11:44:22;;;;;;;48.65;24.95;;;2.50;99.90;;;;;;4965156;28;20125;-78
2021/01/05 11:46:48;;;;;;;35.13;15.38;;;2.40;99.90;;;;;;4961050;28;20046;-78
2021/01/05 11:49:13;;;;;;;33.20;14.68;;;2.40;99.90;;;;;;4958641;28;20042;-78
2021/01/05 11:51:39;;;;;;;31.40;14.93;;;2.30;99.90;;;;;;4983828;28;20040;-77
2021/01/05 11:54:05;;;;;;;30.02;14.52;;;2.30;99.90;;;;;;4959579;28;20039;-79
2021/01/05 11:56:33;;;;;;;36.88;14.88;;;2.30;99.90;;;;;;4945176;28;20062;-79
2021/01/05 11:58:59;;;;;;;34.47;15.68;;;2.40;99.90;;;;;;4959990;28;20034;-78
2021/01/05 12:01:26;;;;;;;27.83;13.52;;;2.40;99.90;;;;;;4966247;28;20129;-80
2021/01/05 12:03:52;;;;;;;29.52;15.02;;;2.40;99.90;;;;;;4961596;28;20588;-75
2021/01/05 12:06:20;;;;;;;37.97;15.60;;;2.50;99.90;;;;;;4993944;28;20038;-80
2021/01/05 12:08:46;;;;;;;34.60;14.50;;;2.50;99.90;;;;;;4973147;28;20133;-80
2021/01/05 12:11:23;;;;;;;38.85;13.95;;;2.50;99.90;;;;;;4965991;28;20035;-78
2021/01/05 12:13:49;;;;;;;29.30;13.93;;;2.40;99.90;;;;;;4973915;28;20072;-79
2021/01/05 12:16:37;;;;;;;33.67;15.02;;;2.40;99.90;;;;;;4966691;28;20042;-74
2021/01/05 12:19:05;;;;;;;36.05;13.73;;;2.30;99.90;;;;;;4969239;28;20097;-80
2021/01/05 12:21:32;;;;;;;30.52;14.73;;;2.30;99.90;;;;;;4959268;28;20074;-79
2021/01/05 12:23:58;;;;;;;31.50;15.85;;;2.40;99.90;;;;;;4969002;28;20077;-82
2021/01/05 12:26:34;;;;;;;35.63;17.55;;;2.30;99.90;;;;;;4970787;28;20810;-83
2021/01/05 12:29:02;;;;;;;28.52;14.27;;;2.40;99.90;;;;;;4986186;28;20030;-76
2021/01/05 12:31:28;;;;;;;30.52;14.13;;;2.40;99.90;;;;;;4960591;28;20911;-76
2021/01/05 12:33:55;;;;;;;29.38;13.43;;;2.40;99.90;;;;;;4960439;28;20149;-76
2021/01/05 12:36:32;;;;;;;29.63;14.07;;;2.40;99.90;;;;;;4979210;28;20038;-76
2021/01/05 12:38:58;;;;;;;29.00;14.40;;;2.40;99.90;;;;;;4957455;28;20423;-76
2021/01/05 12:41:33;;;;;;;29.60;13.82;;;2.50;99.90;;;;;;4944222;28;20046;-76
2021/01/05 12:44:00;;;;;;;31.10;13.07;;;2.40;99.90;;;;;;4965659;28;20031;-76
2021/01/05 12:46:29;;;;;;;30.02;14.15;;;2.30;99.90;;;;;;4957048;28;20050;-76
2021/01/05 12:48:55;;;;;;;32.33;13.52;;;2.30;99.90;;;;;;4963998;28;20039;-76
2021/01/05 12:51:30;;;;;;;30.17;14.02;;;2.40;99.90;;;;;;4963674;28;20086;-76
2021/01/05 12:53:56;;;;;;;33.50;14.45;;;2.40;99.90;;;;;;4944363;28;20053;-76
2021/01/05 12:56:24;;;;;;;31.77;14.45;;;2.40;99.90;;;;;;4967098;28;20491;-76
2021/01/05 12:58:51;;;;;;;28.63;13.90;;;2.40;99.90;;;;;;4959118;28;20058;-76
2021/01/05 13:01:18;;;;;;;30.70;14.85;;;2.40;99.90;;;;;;4965329;28;20414;-76
2021/01/05 13:03:46;;;;;;;65.13;28.05;;;2.40;99.90;;;;;;4951023;28;20038;-75
2021/01/05 13:06:12;;;;;;;30.48;14.52;;;2.40;99.90;;;;;;4952699;28;20118;-76